Time;durP1;ratioP1;P1;durP2;ratioP2;P2;SDS_P1;SDS_P2;PMS_P1;PMS_P2;Temp;Humidity;BMP_temperature;BMP_pressure;BME280_temperature;BME280_humidity;BME280_pressure;Samples;Min_cycle;Max_cycle;Signal;HPM_P1;HPM_P2
2022/04/21 00:00:48;;;;;;;0.95;0.40;;;16.90;44.00;;;;;;5094172;28;20039;-67
2022/04/21 00:03:14;;;;;;;1.70;0.70;;;16.90;44.00;;;;;;5094108;28;20177;-67
2022/04/21 00:05:40;;;;;;;1.70;0.38;;;16.90;44.00;;;;;;5092701;28;20040;-68
2022/04/21 00:08:05;;;;;;;1.90;0.30;;;16.90;44.70;;;;;;5093647;28;20059;-67
2022/04/21 00:10:31;;;;;;;1.48;0.35;;;16.90;44.00;;;;;;5092460;28;20546;-66
2022/04/21 00:12:57;;;;;;;0.80;0.20;;;16.90;44.00;;;;;;5092548;28;20036;-66
2022/04/21 00:15:23;;;;;;;0.88;0.40;;;16.80;44.00;;;;;;5093807;28;20051;-66
2022/04/21 00:17:49;;;;;;;0.70;0.30;;;16.80;44.00;;;;;;5092456;28;20487;-68
2022/04/21 00:20:15;;;;;;;1.15;0.40;;;16.80;44.00;;;;;;5092592;28;20134;-67
2022/04/21 00:25:30;;;;;;;1.67;0.30;;;16.80;43.90;;;;;;5093511;28;20040;-66
2022/04/21 00:27:56;;;;;;;0.77;0.38;;;16.80;44.00;;;;;;5092223;28;20135;-67
2022/04/21 00:30:22;;;;;;;0.57;0.30;;;16.80;44.00;;;;;;5092020;28;20491;-67
2022/04/21 00:32:48;;;;;;;0.63;0.28;;;16.80;44.00;;;;;;5091436;28;20040;-65
2022/04/21 00:35:16;;;;;;;0.40;0.20;;;16.80;44.00;;;;;;5092135;28;20043;-65
2022/04/21 00:37:48;;;;;;;1.45;0.40;;;16.80;44.00;;;;;;5092107;28;20036;-67
2022/04/21 00:40:15;;;;;;;0.77;0.32;;;16.70;43.90;;;;;;5092234;28;20035;-67
2022/04/21 00:42:42;;;;;;;0.52;0.30;;;16.70;43.90;;;;;;5092397;28;20040;-67
2022/04/21 00:45:09;;;;;;;1.85;0.43;;;16.80;44.00;;;;;;5092159;28;20051;-67
2022/04/21 00:47:40;;;;;;;0.75;0.30;;;16.80;44.00;;;;;;5093143;28;20392;-68
2022/04/21 00:50:08;;;;;;;0.80;0.30;;;16.70;44.00;;;;;;5091851;28;20047;-66
2022/04/21 00:52:34;;;;;;;1.02;0.50;;;16.70;44.00;;;;;;5091964;28;20128;-64
2022/04/21 00:55:00;;;;;;;0.80;0.32;;;16.70;44.00;;;;;;5093137;28;20040;-64
2022/04/21 00:57:27;;;;;;;0.98;0.30;;;16.70;44.00;;;;;;5093073;28;20047;-67
2022/04/21 00:59:53;;;;;;;1.88;0.43;;;16.70;44.00;;;;;;5091962;28;20387;-66
2022/04/21 01:02:53;;;;;;;1.00;0.40;;;16.70;44.10;;;;;;5091622;28;20479;-67
2022/04/21 01:05:08;;;;;;;1.30;0.40;;;16.70;44.10;;;;;;5091616;28;20068;-67
2022/04/21 01:07:34;;;;;;;1.75;0.63;;;16.70;44.00;;;;;;5091265;28;20064;-64
2022/04/21 01:10:00;;;;;;;0.90;0.40;;;16.60;44.00;;;;;;5093105;28;20544;-67
2022/04/21 01:12:25;;;;;;;0.85;0.40;;;16.60;44.00;;;;;;5091339;28;20048;-67
2022/04/21 01:14:54;;;;;;;0.95;0.45;;;16.60;44.10;;;;;;5091444;28;20036;-67
2022/04/21 01:17:31;;;;;;;0.82;0.40;;;16.60;44.10;;;;;;5092531;28;20036;-68
2022/04/21 01:19:57;;;;;;;0.60;0.30;;;16.60;44.10;;;;;;5091287;28;20044;-66
2022/04/21 01:22:22;;;;;;;1.50;0.50;;;16.60;44.10;;;;;;5091493;28;20135;-66
2022/04/21 01:24:48;;;;;;;2.22;0.32;;;16.60;44.10;;;;;;5091287;28;20048;-67
2022/04/21 01:27:14;;;;;;;0.98;0.57;;;16.60;44.20;;;;;;5092421;28;20035;-67
2022/04/21 01:29:39;;;;;;;1.05;0.30;;;16.60;44.20;;;;;;5092472;28;20368;-67
2022/04/21 01:32:05;;;;;;;0.77;0.40;;;16.50;44.90;;;;;;5091017;28;20051;-67
2022/04/21 01:34:31;;;;;;;0.90;0.43;;;16.60;44.20;;;;;;5092333;28;20059;-65
2022/04/21 01:42:27;;;;;;;1.30;0.40;;;16.50;44.20;;;;;;5090527;28;20047;-67
2022/04/21 01:44:53;;;;;;;1.00;0.32;;;16.50;44.20;;;;;;5092112;28;20032;-64
2022/04/21 01:47:19;;;;;;;1.48;0.50;;;16.50;44.20;;;;;;5090902;28;20051;-64
2022/04/21 01:49:44;;;;;;;1.27;0.45;;;16.50;44.20;;;;;;5090779;28;20085;-66
2022/04/21 01:52:10;;;;;;;1.73;0.40;;;16.50;44.30;;;;;;5092280;28;20085;-66
2022/04/21 01:54:35;;;;;;;1.35;0.63;;;16.50;44.30;;;;;;5090736;28;20038;-68
2022/04/21 01:57:01;;;;;;;1.70;0.40;;;16.50;44.30;;;;;;5092055;28;20040;-63
2022/04/21 01:59:27;;;;;;;0.90;0.30;;;16.50;44.30;;;;;;5090957;28;20051;-66
2022/04/21 02:01:52;;;;;;;1.00;0.50;;;16.40;44.30;;;;;;5090985;28;20062;-63
2022/04/21 02:04:18;;;;;;;0.75;0.30;;;16.40;44.30;;;;;;5092171;28;20440;-66
2022/04/21 02:06:43;;;;;;;0.73;0.30;;;16.40;44.20;;;;;;5090680;28;20040;-67
2022/04/21 02:09:13;;;;;;;0.88;0.30;;;16.40;45.10;;;;;;5090251;28;20048;-66
2022/04/21 02:11:38;;;;;;;0.73;0.30;;;16.50;44.30;;;;;;5090839;28;20082;-68
2022/04/21 02:14:04;;;;;;;1.05;0.30;;;16.70;44.20;;;;;;5090856;28;20076;-64
2022/04/21 02:16:30;;;;;;;0.50;0.40;;;16.90;43.80;;;;;;5091743;28;20534;-67
2022/04/21 02:18:55;;;;;;;1.17;0.22;;;17.20;43.40;;;;;;5090720;28;20044;-68
2022/04/21 02:21:21;;;;;;;0.70;0.28;;;17.50;42.80;;;;;;5091836;28;20387;-64
2022/04/21 02:23:46;;;;;;;0.60;0.28;;;17.90;42.30;;;;;;5090613;28;20103;-66
2022/04/21 02:26:12;;;;;;;1.17;0.30;;;18.30;41.80;;;;;;5090796;28;20048;-66
2022/04/21 02:28:38;;;;;;;0.68;0.20;;;18.50;41.20;;;;;;5090337;28;20498;-69
2022/04/21 02:31:04;;;;;;;1.05;0.20;;;18.90;40.80;;;;;;5091636;28;20040;-67
2022/04/21 02:33:31;;;;;;;0.55;0.20;;;19.10;40.30;;;;;;5090594;28;20142;-67
2022/04/21 02:35:56;;;;;;;0.50;0.22;;;19.30;39.90;;;;;;5090360;28;20048;-66
2022/04/21 02:38:22;;;;;;;0.60;0.30;;;19.50;39.50;;;;;;5090605;28;20055;-67
2022/04/21 02:40:48;;;;;;;0.52;0.20;;;19.70;39.20;;;;;;5090273;28;20438;-68
2022/04/21 02:43:16;;;;;;;0.88;0.20;;;19.90;39.00;;;;;;5090629;28;20105;-67
2022/04/21 02:45:42;;;;;;;0.77;0.20;;;19.90;38.70;;;;;;5091474;28;20040;-67
2022/04/21 02:48:09;;;;;;;0.60;0.20;;;20.00;38.60;;;;;;5091419;28;20080;-67
2022/04/21 02:50:35;;;;;;;1.08;0.30;;;20.00;38.50;;;;;;5090173;28;20036;-66
2022/04/21 02:53:01;;;;;;;0.60;0.30;;;20.00;38.40;;;;;;5090287;28;20096;-67
2022/04/21 02:58:14;;;;;;;0.50;0.25;;;19.90;38.40;;;;;;5093146;28;20052;-65
2022/04/21 03:00:40;;;;;;;1.08;0.20;;;19.80;38.40;;;;;;5095147;28;20445;-67
2022/04/21 03:03:06;;;;;;;0.88;0.20;;;19.70;38.50;;;;;;5094070;28;20040;-67
2022/04/21 03:05:32;;;;;;;0.95;0.22;;;19.60;38.60;;;;;;5095321;28;20086;-67
2022/04/21 03:07:57;;;;;;;0.60;0.20;;;19.50;38.70;;;;;;5093523;28;20127;-67
2022/04/21 03:10:23;;;;;;;0.98;0.30;;;19.40;38.80;;;;;;5093940;28;20044;-66
2022/04/21 03:12:49;;;;;;;1.08;0.20;;;19.30;39.00;;;;;;5094022;28;20040;-66
2022/04/21 03:15:15;;;;;;;0.63;0.20;;;19.20;39.00;;;;;;5093646;28;20036;-64
2022/04/21 03:17:44;;;;;;;1.02;0.20;;;19.00;39.10;;;;;;5093959;28;20032;-67
2022/04/21 03:24:18;;;;;;;1.65;0.38;;;18.90;39.30;;;;;;5093920;28;20428;-63
2022/04/21 03:25:44;;;;;;;0.77;0.40;;;18.70;39.60;;;;;;5093279;28;20054;-66
2022/04/21 03:28:11;;;;;;;0.90;0.30;;;18.60;39.70;;;;;;5094667;28;20048;-67
2022/04/21 03:30:37;;;;;;;1.00;0.40;;;18.60;39.80;;;;;;5094789;28;20063;-64
2022/04/21 03:33:03;;;;;;;0.60;0.20;;;18.60;39.90;;;;;;5093317;28;20518;-67
2022/04/21 03:35:29;;;;;;;0.50;0.30;;;18.60;40.00;;;;;;5093574;28;20032;-64
2022/04/21 03:37:55;;;;;;;1.27;0.30;;;18.60;40.00;;;;;;5094528;28;20463;-66
2022/04/21 03:40:21;;;;;;;0.70;0.30;;;18.60;40.00;;;;;;5093226;28;20052;-67
2022/04/21 03:42:47;;;;;;;1.38;0.30;;;18.60;40.00;;;;;;5093390;28;20118;-67
2022/04/21 03:45:12;;;;;;;0.75;0.52;;;18.60;39.90;;;;;;5093138;28;20523;-66
2022/04/21 03:47:39;;;;;;;0.65;0.30;;;18.60;39.80;;;;;;5094488;28;20032;-66
2022/04/21 03:50:05;;;;;;;0.40;0.20;;;18.70;39.80;;;;;;5093105;28;20047;-66
2022/04/21 03:52:31;;;;;;;0.60;0.35;;;18.70;39.70;;;;;;5094325;28;20047;-66
2022/04/21 03:54:57;;;;;;;1.20;0.35;;;18.70;39.60;;;;;;5093045;28;20499;-67
2022/04/21 03:57:25;;;;;;;0.95;0.30;;;18.70;39.60;;;;;;5093995;28;20075;-67
2022/04/21 03:59:51;;;;;;;1.15;0.28;;;18.80;39.60;;;;;;5094619;28;20085;-66
2022/04/21 04:02:16;;;;;;;0.73;0.30;;;18.80;39.60;;;;;;5112441;28;20445;-67
2022/04/21 04:04:42;;;;;;;0.85;0.50;;;18.80;39.50;;;;;;5112717;28;20510;-66
2022/04/21 04:12:41;;;;;;;1.20;0.40;;;18.70;39.50;;;;;;5092638;28;20052;-66
2022/04/21 04:15:08;;;;;;;0.77;0.38;;;18.60;39.60;;;;;;5092839;28;20101;-67
2022/04/21 04:17:33;;;;;;;1.02;0.30;;;18.60;39.70;;;;;;5093739;28;20387;-69
2022/04/21 04:19:59;;;;;;;0.65;0.40;;;18.50;39.70;;;;;;5092466;28;20036;-67
2022/04/21 04:22:25;;;;;;;1.20;0.40;;;18.50;39.80;;;;;;5093686;28;20085;-67
2022/04/21 04:24:55;;;;;;;1.40;0.47;;;18.40;39.80;;;;;;5092858;28;20383;-67
2022/04/21 04:27:22;;;;;;;1.00;0.40;;;18.40;39.90;;;;;;5092348;28;20044;-68
2022/04/21 04:29:47;;;;;;;0.68;0.40;;;18.40;39.90;;;;;;5092165;28;20048;-67
2022/04/21 04:32:16;;;;;;;0.55;0.40;;;18.40;40.00;;;;;;5093613;28;20097;-67
2022/04/21 04:34:43;;;;;;;0.95;0.43;;;18.30;40.00;;;;;;5092106;28;20044;-67
2022/04/21 04:37:08;;;;;;;1.30;0.80;;;18.30;40.10;;;;;;5092100;28;20043;-65
2022/04/21 04:39:34;;;;;;;1.35;0.40;;;18.30;40.10;;;;;;5093656;28;20044;-66
2022/04/21 04:42:31;;;;;;;1.00;0.40;;;18.20;40.10;;;;;;5093411;28;20040;-67
2022/04/21 04:44:45;;;;;;;2.83;0.70;;;18.20;40.20;;;;;;5092227;28;20051;-67
2022/04/21 04:47:12;;;;;;;0.88;0.40;;;18.20;40.10;;;;;;5092299;28;20032;-66
2022/04/21 04:49:37;;;;;;;1.42;0.60;;;18.20;40.10;;;;;;5091801;28;20132;-66
2022/04/21 04:52:03;;;;;;;2.35;0.55;;;18.20;40.10;;;;;;5091908;28;20190;-64
2022/04/21 04:54:29;;;;;;;1.30;0.45;;;18.20;40.10;;;;;;5092041;28;20047;-66
2022/04/21 04:56:57;;;;;;;1.13;0.70;;;18.20;40.10;;;;;;5091976;28;20028;-68
2022/04/21 04:59:23;;;;;;;1.17;0.80;;;18.20;40.10;;;;;;5091669;28;20129;-67
2022/04/21 05:01:48;;;;;;;0.88;0.40;;;18.20;40.20;;;;;;5091963;28;20093;-67
2022/04/21 05:04:17;;;;;;;2.88;0.60;;;18.10;40.10;;;;;;5092945;28;20068;-68
2022/04/21 05:09:24;;;;;;;0.98;0.40;;;18.10;40.10;;;;;;5129279;27;20135;-66
2022/04/21 05:11:51;;;;;;;2.30;0.47;;;18.10;40.10;;;;;;5146247;27;20054;-67
2022/04/21 05:14:18;;;;;;;2.45;0.60;;;18.20;40.10;;;;;;5128967;28;20043;-68
2022/04/21 05:16:44;;;;;;;0.63;0.40;;;18.10;40.10;;;;;;5129392;28;20038;-66
2022/04/21 05:19:11;;;;;;;1.45;0.52;;;18.10;40.10;;;;;;5130124;27;20058;-67
2022/04/21 05:21:37;;;;;;;0.70;0.60;;;18.10;40.10;;;;;;5129645;27;20044;-67
2022/04/21 05:24:04;;;;;;;1.05;0.65;;;18.20;40.10;;;;;;5119441;28;20039;-67
2022/04/21 05:26:31;;;;;;;1.63;0.57;;;18.20;40.10;;;;;;5128574;27;20039;-71
2022/04/21 05:28:59;;;;;;;1.70;0.43;;;18.20;40.10;;;;;;5128997;27;20122;-73
2022/04/21 05:31:26;;;;;;;4.00;1.23;;;18.20;40.50;;;;;;5128038;28;20088;-70
2022/04/21 05:33:53;;;;;;;1.88;0.80;;;18.20;40.80;;;;;;5128475;28;20039;-65
2022/04/21 05:36:19;;;;;;;5.85;0.70;;;18.20;40.90;;;;;;5127852;28;20043;-64
2022/04/21 05:38:46;;;;;;;1.85;0.82;;;18.20;41.10;;;;;;5126929;28;20041;-65
2022/04/21 05:41:13;;;;;;;3.50;1.00;;;18.20;41.10;;;;;;5130073;28;20035;-66
2022/04/21 05:43:42;;;;;;;5.35;1.20;;;18.20;41.10;;;;;;5129203;28;20051;-64
2022/04/21 05:46:09;;;;;;;3.25;1.08;;;18.20;41.30;;;;;;5128786;28;20047;-68
2022/04/21 05:48:36;;;;;;;3.25;1.25;;;18.30;41.30;;;;;;5127056;28;20050;-67
2022/04/21 05:51:03;;;;;;;5.13;0.70;;;18.30;41.40;;;;;;5119770;28;20437;-66
2022/04/21 05:53:34;;;;;;;2.75;0.43;;;18.30;41.30;;;;;;5106587;28;20042;-66
2022/04/21 05:56:00;;;;;;;1.13;0.47;;;18.30;41.30;;;;;;5113037;28;20035;-67
2022/04/21 05:58:27;;;;;;;2.25;1.00;;;18.40;41.30;;;;;;5127756;28;20395;-65
2022/04/21 06:00:53;;;;;;;0.93;0.40;;;18.40;41.20;;;;;;5127965;28;20054;-66
2022/04/21 06:03:18;;;;;;;1.73;0.40;;;18.40;41.10;;;;;;5121288;28;20032;-67
2022/04/21 06:05:44;;;;;;;3.47;0.77;;;18.40;41.10;;;;;;5128229;27;20039;-64
2022/04/21 06:08:10;;;;;;;2.28;0.77;;;18.40;41.00;;;;;;5117490;28;20044;-64
2022/04/21 06:10:36;;;;;;;4.13;0.70;;;18.40;41.00;;;;;;5126393;28;20065;-67
2022/04/21 06:13:03;;;;;;;3.25;0.55;;;18.40;41.00;;;;;;5116635;28;20035;-67
2022/04/21 06:15:31;;;;;;;1.83;0.70;;;18.40;41.10;;;;;;5104878;28;20036;-69
2022/04/21 06:17:59;;;;;;;3.75;0.82;;;18.40;41.00;;;;;;5116834;28;20047;-67
2022/04/21 06:20:26;;;;;;;1.90;0.60;;;18.40;41.00;;;;;;5111087;28;20067;-67
2022/04/21 06:22:52;;;;;;;1.40;0.50;;;18.40;40.90;;;;;;5103039;28;20043;-65
2022/04/21 06:25:18;;;;;;;1.67;0.50;;;18.40;40.80;;;;;;5109790;28;20050;-65
2022/04/21 06:27:43;;;;;;;1.27;0.55;;;18.50;40.90;;;;;;5105517;28;20036;-66
2022/04/21 06:30:10;;;;;;;0.90;0.40;;;18.50;41.10;;;;;;5109657;28;20092;-65
2022/04/21 06:32:36;;;;;;;3.55;0.73;;;18.50;41.20;;;;;;5109440;28;20031;-64
2022/04/21 06:35:02;;;;;;;1.30;0.50;;;18.50;41.30;;;;;;5104702;28;20106;-68
2022/04/21 06:37:28;;;;;;;2.85;0.77;;;18.60;41.50;;;;;;5107496;28;20040;-68
2022/04/21 06:39:54;;;;;;;2.95;0.50;;;18.60;41.60;;;;;;5108521;28;20047;-67
2022/04/21 06:42:19;;;;;;;4.30;0.77;;;18.60;41.50;;;;;;5108355;28;20039;-69
2022/04/21 06:48:02;;;;;;;1.90;0.50;;;18.60;41.30;;;;;;5104419;28;20040;-69
2022/04/21 06:50:16;;;;;;;2.00;0.45;;;18.60;41.60;;;;;;5091590;28;20043;-66
2022/04/21 06:52:42;;;;;;;3.95;0.75;;;18.70;41.50;;;;;;5096308;28;20051;-70
2022/04/21 06:55:08;;;;;;;3.58;0.73;;;18.90;41.30;;;;;;5096710;28;20046;-65
2022/04/21 06:57:33;;;;;;;5.03;0.60;;;19.10;41.00;;;;;;5097410;28;20174;-69
2022/04/21 06:59:59;;;;;;;1.58;0.40;;;19.30;40.70;;;;;;5095317;28;20035;-66
2022/04/21 07:02:27;;;;;;;1.92;0.40;;;19.40;40.50;;;;;;5091661;28;20123;-70
2022/04/21 07:04:53;;;;;;;3.70;0.60;;;19.50;40.10;;;;;;5101846;28;21545;-69
2022/04/21 07:07:19;;;;;;;1.60;0.50;;;19.70;39.80;;;;;;5092872;27;20059;-71
2022/04/21 07:09:44;;;;;;;2.60;0.30;;;19.80;39.60;;;;;;5094987;28;20047;-71
2022/04/21 07:12:13;;;;;;;3.85;0.45;;;19.90;39.40;;;;;;5095573;28;20038;-64
2022/04/21 07:14:40;;;;;;;3.95;0.35;;;20.00;39.30;;;;;;5091328;28;20497;-71
2022/04/21 07:17:06;;;;;;;2.15;0.32;;;20.10;39.10;;;;;;5090229;28;20169;-70
2022/04/21 07:19:34;;;;;;;5.15;0.88;;;20.40;38.70;;;;;;5084045;28;20118;-72
2022/04/21 07:22:00;;;;;;;1.15;0.30;;;20.80;38.10;;;;;;5091237;28;20044;-65
2022/04/21 07:24:26;;;;;;;3.50;0.55;;;21.20;37.40;;;;;;5086286;28;20156;-70
2022/04/21 07:26:53;;;;;;;3.13;0.30;;;21.60;36.90;;;;;;5085386;28;20031;-67
2022/04/21 07:29:18;;;;;;;1.67;0.20;;;22.00;36.40;;;;;;5093911;28;20482;-65
2022/04/21 07:31:44;;;;;;;1.30;0.35;;;22.20;35.90;;;;;;5093424;28;20061;-73
2022/04/21 07:34:09;;;;;;;1.85;0.52;;;22.50;35.70;;;;;;5094788;28;20036;-71
2022/04/21 07:36:35;;;;;;;1.85;0.40;;;22.60;35.40;;;;;;5089548;28;20040;-71
2022/04/21 07:39:01;;;;;;;1.17;0.30;;;22.80;35.30;;;;;;5088159;28;20047;-72
2022/04/21 07:41:29;;;;;;;0.75;0.30;;;22.80;35.10;;;;;;5087621;28;20036;-71
2022/04/21 07:43:55;;;;;;;1.90;0.30;;;22.90;35.00;;;;;;5086430;28;20090;-72
2022/04/21 07:46:20;;;;;;;2.63;0.32;;;22.90;34.90;;;;;;5092239;28;20513;-70
2022/04/21 07:51:32;;;;;;;0.93;0.40;;;22.90;34.90;;;;;;5080175;28;20040;-70
2022/04/21 07:53:57;;;;;;;3.35;0.32;;;22.80;34.90;;;;;;5085152;28;20035;-72
2022/04/21 07:56:23;;;;;;;0.40;0.22;;;22.80;34.90;;;;;;5095796;28;20141;-72
2022/04/21 07:58:49;;;;;;;3.20;0.32;;;22.70;34.90;;;;;;5084412;28;20399;-72
2022/04/21 08:01:14;;;;;;;3.60;0.40;;;22.60;35.10;;;;;;5082202;28;20519;-72
2022/04/21 08:03:43;;;;;;;3.17;0.30;;;22.60;35.30;;;;;;5092562;27;20494;-72
2022/04/21 08:06:09;;;;;;;2.50;0.40;;;22.50;35.40;;;;;;5090438;28;20643;-70
2022/04/21 08:08:34;;;;;;;1.77;0.45;;;22.50;35.50;;;;;;5088177;28;20056;-70
2022/04/21 08:11:04;;;;;;;2.28;0.30;;;22.40;35.60;;;;;;5089404;28;20048;-69
2022/04/21 08:13:29;;;;;;;3.70;0.20;;;22.40;35.80;;;;;;5081398;28;20088;-64
2022/04/21 08:15:55;;;;;;;2.55;0.30;;;22.30;35.90;;;;;;5086117;28;20039;-71
2022/04/21 08:18:21;;;;;;;5.35;0.22;;;22.20;35.90;;;;;;5087653;28;20051;-72
2022/04/21 08:20:48;;;;;;;5.10;0.32;;;22.10;36.00;;;;;;5091116;28;20130;-71
2022/04/21 08:23:14;;;;;;;3.88;0.30;;;22.00;36.20;;;;;;5091698;28;20068;-71
2022/04/21 08:33:56;;;;;;;2.80;0.30;;;21.70;36.50;;;;;;5084336;28;20663;-67
2022/04/21 08:36:21;;;;;;;3.45;0.43;;;21.60;36.50;;;;;;5090839;28;20057;-69
2022/04/21 08:38:47;;;;;;;2.25;0.40;;;21.50;36.40;;;;;;5097418;28;20127;-68
2022/04/21 08:41:18;;;;;;;3.65;0.30;;;21.40;36.40;;;;;;5093358;28;20560;-69
2022/04/21 08:43:45;;;;;;;;;;;21.30;36.20;;;;;;5093919;28;20522;-68
2022/04/21 08:46:16;;;;;;;1.25;0.35;;;21.20;36.20;;;;;;5095630;28;19931;-70
2022/04/21 08:48:48;;;;;;;2.38;0.52;;;21.20;36.30;;;;;;5094539;28;20489;-71
2022/04/21 08:51:14;;;;;;;2.45;0.30;;;21.20;36.40;;;;;;5078968;28;20201;-73
2022/04/21 08:53:41;;;;;;;1.73;0.30;;;21.10;36.40;;;;;;5083649;28;20044;-70
2022/04/21 08:56:10;;;;;;;3.47;0.40;;;21.10;36.40;;;;;;5087682;28;20047;-69
2022/04/21 08:58:36;;;;;;;2.00;0.20;;;21.10;36.50;;;;;;5087996;28;20620;-68
2022/04/21 09:01:01;;;;;;;1.15;0.40;;;21.10;36.60;;;;;;5086749;28;20044;-74
2022/04/21 09:03:27;;;;;;;2.33;0.25;;;21.00;36.80;;;;;;5090067;28;20077;-73
2022/04/21 09:05:53;;;;;;;2.65;0.30;;;21.00;36.90;;;;;;5085534;28;20406;-72
2022/04/21 09:08:23;;;;;;;1.77;0.40;;;21.00;36.90;;;;;;5095388;28;20059;-72
2022/04/21 09:13:44;;;;;;;2.88;0.30;;;21.00;37.10;;;;;;5123912;27;20180;-69
2022/04/21 09:16:13;;;;;;;2.50;0.30;;;21.00;37.10;;;;;;5087001;28;20048;-69
2022/04/21 09:18:42;;;;;;;2.97;0.40;;;21.00;37.10;;;;;;5085284;28;20052;-70
2022/04/21 09:23:49;;;;;;;0.82;0.30;;;21.00;37.10;;;;;;5122872;27;20135;-69
2022/04/21 09:26:20;;;;;;;0.90;0.20;;;21.00;37.10;;;;;;5101530;27;20403;-70
2022/04/21 09:28:53;;;;;;;1.55;0.30;;;21.00;37.10;;;;;;5118919;27;20119;-69
2022/04/21 09:31:19;;;;;;;2.80;0.30;;;21.00;37.30;;;;;;5102774;27;20055;-69
2022/04/21 09:33:45;;;;;;;1.00;0.20;;;21.00;37.40;;;;;;5105561;27;20040;-70
2022/04/21 09:36:10;;;;;;;0.73;0.20;;;21.00;37.40;;;;;;5107209;27;20037;-70
2022/04/21 09:38:37;;;;;;;2.20;0.20;;;21.00;37.40;;;;;;5109477;27;20908;-73
2022/04/21 09:43:44;;;;;;;4.97;0.30;;;21.00;37.40;;;;;;5078935;27;20154;-72
2022/04/21 09:48:54;;;;;;;0.98;0.40;;;21.10;37.50;;;;;;5121308;27;20132;-72
2022/04/21 09:51:27;;;;;;;0.60;0.20;;;21.10;37.50;;;;;;5091813;28;20040;-71
2022/04/21 09:53:58;;;;;;;2.58;0.20;;;21.20;37.40;;;;;;5090933;28;20059;-71
2022/04/21 09:56:41;;;;;;;2.75;0.93;;;21.20;37.30;;;;;;5105134;28;20051;-68
2022/04/21 09:59:09;;;;;;;1.25;0.20;;;21.20;37.30;;;;;;5088620;28;20664;-72
2022/04/21 10:01:38;;;;;;;5.57;1.15;;;21.20;37.20;;;;;;5082126;28;20085;-72
2022/04/21 10:04:08;;;;;;;3.42;0.30;;;21.20;37.20;;;;;;5091429;28;20047;-72
2022/04/21 10:06:37;;;;;;;2.83;0.32;;;21.20;37.20;;;;;;5094922;28;20050;-72
2022/04/21 10:09:03;;;;;;;1.88;0.45;;;21.20;37.20;;;;;;5095644;28;20117;-74
2022/04/21 10:11:29;;;;;;;3.00;0.30;;;21.20;37.20;;;;;;5107455;28;20958;-75
2022/04/21 10:13:56;;;;;;;7.50;0.40;;;21.20;37.20;;;;;;5092800;28;20047;-71
2022/04/21 10:16:23;;;;;;;2.92;0.25;;;21.20;37.20;;;;;;5096473;28;20088;-70
2022/04/21 10:18:52;;;;;;;3.92;0.20;;;21.20;37.20;;;;;;5095172;28;20048;-69
2022/04/21 10:21:42;;;;;;;0.57;0.20;;;21.30;37.20;;;;;;5091021;28;20462;-69
2022/04/21 10:24:08;;;;;;;1.60;0.30;;;21.30;37.10;;;;;;5093406;28;20106;-69
2022/04/21 10:26:43;;;;;;;1.85;0.30;;;21.30;37.20;;;;;;5096849;28;20484;-71
2022/04/21 10:29:17;;;;;;;1.63;0.25;;;21.30;37.20;;;;;;5093239;28;20528;-71
2022/04/21 10:34:46;;;;;;;1.95;0.40;;;21.30;38.00;;;;;;5089962;27;20110;-69
2022/04/21 10:37:16;;;;;;;0.95;0.30;;;21.30;37.40;;;;;;5057847;28;20083;-71
2022/04/21 10:42:57;;;;;;;2.10;0.30;;;21.30;37.40;;;;;;5124984;27;20864;-73
2022/04/21 10:48:10;;;;;;;2.40;0.30;;;21.20;37.60;;;;;;5106091;27;20156;-73
2022/04/21 10:50:37;;;;;;;6.70;0.40;;;21.20;37.80;;;;;;5068663;28;20044;-73
2022/04/21 11:06:51;;;;;;;2.25;0.30;;;21.10;38.30;;;;;;5099610;27;20875;-72
2022/04/21 11:12:37;;;;;;;1.20;0.30;;;21.10;38.90;;;;;;5103750;27;20211;-77
2022/04/21 11:20:51;;;;;;;3.50;0.45;;;21.00;39.40;;;;;;5101152;27;20140;-70
2022/04/21 11:23:24;;;;;;;1.50;0.20;;;21.00;38.80;;;;;;5067128;28;20056;-71
2022/04/21 11:26:01;;;;;;;4.10;0.40;;;21.00;38.70;;;;;;5080096;28;20126;-69
2022/04/21 11:28:26;;;;;;;2.17;0.85;;;20.90;38.60;;;;;;5083150;28;20767;-69
2022/04/21 11:31:02;;;;;;;6.43;0.90;;;20.90;38.90;;;;;;5101042;28;20044;-72
2022/04/21 11:33:28;;;;;;;2.67;0.40;;;20.90;39.30;;;;;;5093970;28;20093;-72
2022/04/21 11:36:10;;;;;;;3.35;0.40;;;20.90;39.30;;;;;;5083584;28;20052;-74
2022/04/21 11:38:39;;;;;;;2.72;0.60;;;20.90;39.50;;;;;;5074888;28;20044;-73
2022/04/21 11:41:07;;;;;;;4.13;0.52;;;20.90;39.60;;;;;;5086049;28;20039;-71
2022/04/21 11:43:33;;;;;;;3.15;0.38;;;20.90;39.70;;;;;;5069184;28;20078;-72
2022/04/21 11:46:02;;;;;;;3.72;0.50;;;20.90;39.90;;;;;;5079097;28;20888;-73
2022/04/21 11:51:09;;;;;;;1.73;0.40;;;20.80;40.00;;;;;;5119340;27;20991;-73
2022/04/21 11:53:41;;;;;;;2.65;0.40;;;20.80;40.10;;;;;;5085477;28;20122;-73
2022/04/21 11:56:10;;;;;;;8.85;0.68;;;20.80;40.20;;;;;;5086141;28;20142;-76
2022/04/21 11:58:39;;;;;;;1.95;0.35;;;20.80;40.30;;;;;;5106236;28;20706;-74
2022/04/21 12:06:32;;;;;;;3.65;0.30;;;20.90;40.60;;;;;;5119656;27;20156;-73
2022/04/21 12:08:59;;;;;;;3.80;0.20;;;20.90;40.60;;;;;;5104423;27;20040;-75
2022/04/21 12:11:25;;;;;;;1.67;0.20;;;20.90;40.60;;;;;;5103073;27;20048;-75
2022/04/21 12:13:51;;;;;;;3.95;0.47;;;21.00;40.50;;;;;;5083447;28;20047;-74
2022/04/21 12:19:44;;;;;;;3.15;0.40;;;21.00;40.00;;;;;;5124032;27;20125;-75
2022/04/21 12:24:51;;;;;;;1.08;0.20;;;21.10;39.90;;;;;;5125900;27;20695;-75
2022/04/21 12:30:05;;;;;;;2.33;0.30;;;21.10;39.70;;;;;;5102227;27;20135;-73
2022/04/21 12:35:15;;;;;;;1.13;0.40;;;21.10;39.40;;;;;;5112495;27;20171;-74
2022/04/21 12:37:44;;;;;;;3.30;0.40;;;21.20;39.40;;;;;;5119026;27;20394;-74
2022/04/21 12:40:12;;;;;;;3.08;0.60;;;21.20;39.30;;;;;;5102659;27;20074;-73
2022/04/21 12:42:42;;;;;;;3.97;0.47;;;21.20;39.30;;;;;;5099213;27;20064;-73
2022/04/21 12:45:09;;;;;;;5.60;0.38;;;21.20;39.30;;;;;;5101800;27;20039;-75
2022/04/21 12:47:46;;;;;;;3.47;0.60;;;21.20;40.00;;;;;;5094906;27;20032;-69
2022/04/21 12:50:19;;;;;;;3.08;0.50;;;21.30;39.10;;;;;;5102027;27;20043;-74
2022/04/21 12:52:47;;;;;;;4.30;0.60;;;21.30;39.10;;;;;;5100640;27;20054;-75
2022/04/21 12:55:26;;;;;;;3.05;0.38;;;21.30;39.00;;;;;;5101298;27;20042;-76
2022/04/21 12:58:10;;;;;;;1.60;0.32;;;21.40;39.00;;;;;;5105755;27;20120;-74
2022/04/21 13:00:40;;;;;;;1.58;0.40;;;21.40;39.00;;;;;;5105928;27;20039;-73
2022/04/21 13:03:08;;;;;;;;;;;21.40;38.90;;;;;;5104329;27;20043;-74
2022/04/21 13:08:26;;;;;;;1.92;0.40;;;21.40;38.70;;;;;;5118840;27;20135;-74
2022/04/21 13:10:54;;;;;;;3.45;0.55;;;21.40;38.60;;;;;;5107757;28;20735;-75
2022/04/21 13:13:21;;;;;;;1.83;0.40;;;21.40;38.60;;;;;;5113830;28;20085;-76
2022/04/21 13:15:47;;;;;;;2.25;0.38;;;21.40;38.60;;;;;;5118805;28;20107;-76
2022/04/21 13:18:16;;;;;;;2.33;0.28;;;21.40;38.50;;;;;;5119321;28;20501;-73
2022/04/21 13:23:28;;;;;;;1.25;0.40;;;21.40;38.50;;;;;;5121283;27;20082;-74
2022/04/21 13:25:54;;;;;;;2.80;0.47;;;21.40;38.40;;;;;;5121934;28;20128;-73
2022/04/21 13:28:21;;;;;;;1.35;0.47;;;21.30;38.50;;;;;;5120581;28;20483;-74
2022/04/21 13:33:21;;;;;;;4.07;0.50;;;21.40;38.60;;;;;;5124212;28;20110;-74
2022/04/21 13:33:36;;;;;;;2.05;0.32;;;21.40;38.80;;;;;;5121697;28;20079;-74
2022/04/21 13:36:02;;;;;;;2.72;0.70;;;21.40;38.90;;;;;;5121874;28;20220;-72
2022/04/21 13:38:27;;;;;;;1.33;0.50;;;21.40;39.00;;;;;;5118294;28;20410;-75
2022/04/21 13:40:53;;;;;;;2.35;0.40;;;21.40;39.00;;;;;;5120986;28;20039;-73
2022/04/21 13:43:19;;;;;;;3.25;0.50;;;21.40;39.00;;;;;;5124045;28;20043;-74
2022/04/21 13:45:44;;;;;;;3.97;0.40;;;21.40;39.10;;;;;;5123259;28;20027;-72
2022/04/21 13:48:10;;;;;;;1.88;0.40;;;21.40;39.20;;;;;;5123968;27;20076;-71
2022/04/21 13:50:37;;;;;;;2.95;0.47;;;21.40;39.30;;;;;;5122773;28;20039;-73
2022/04/21 13:53:03;;;;;;;2.53;0.50;;;21.40;39.30;;;;;;5120993;28;20470;-73
2022/04/21 13:55:31;;;;;;;1.95;0.32;;;21.40;39.20;;;;;;5118778;28;20379;-73
2022/04/21 13:57:58;;;;;;;2.22;0.52;;;21.40;39.10;;;;;;5116292;28;20122;-71
2022/04/21 14:00:26;;;;;;;5.68;0.40;;;21.40;39.20;;;;;;5119879;28;20043;-74
2022/04/21 14:02:52;;;;;;;3.88;0.75;;;21.40;39.40;;;;;;5117733;28;20043;-69
2022/04/21 14:05:18;;;;;;;1.40;0.40;;;21.40;39.40;;;;;;5121815;28;20031;-70
2022/04/21 14:07:44;;;;;;;2.40;0.40;;;21.40;39.50;;;;;;5122934;28;20524;-73
2022/04/21 14:10:12;;;;;;;1.60;0.43;;;21.50;39.50;;;;;;5123264;28;20483;-73
2022/04/21 14:12:38;;;;;;;1.75;0.50;;;21.50;39.40;;;;;;5123456;28;20031;-73
2022/04/21 14:15:06;;;;;;;1.52;0.38;;;21.50;39.30;;;;;;5121634;28;20047;-72
2022/04/21 14:17:32;;;;;;;4.65;0.43;;;21.50;39.20;;;;;;5119231;28;20039;-73
2022/04/21 14:19:59;;;;;;;1.92;0.30;;;21.40;39.10;;;;;;5108098;28;20050;-75
2022/04/21 14:22:27;;;;;;;1.05;0.40;;;21.40;39.10;;;;;;5110409;28;20088;-72
2022/04/21 14:24:53;;;;;;;1.95;0.50;;;21.50;39.30;;;;;;5108468;28;20402;-74
2022/04/21 14:27:19;;;;;;;4.68;0.40;;;21.40;39.30;;;;;;5105726;28;20035;-69
2022/04/21 14:29:46;;;;;;;1.60;0.50;;;21.40;39.40;;;;;;5095486;28;20438;-70
2022/04/21 14:32:12;;;;;;;3.20;0.30;;;21.40;39.50;;;;;;5107714;28;20513;-67